sensor_id;sensor_type;location;lat;lon;timestamp;P1;durP1;ratioP1;P2;durP2;ratioP2
7969;SDS011;4030;52.362;9.206;2023-04-26T00:02:02;2.55;;;1.10;;
7969;SDS011;4030;52.362;9.206;2023-04-26T00:04:29;2.97;;;1.23;;
7969;SDS011;4030;52.362;9.206;2023-04-26T00:06:55;2.75;;;1.25;;
7969;SDS011;4030;52.362;9.206;2023-04-26T00:09:21;3.28;;;1.30;;
7969;SDS011;4030;52.362;9.206;2023-04-26T00:11:48;3.08;;;1.20;;
7969;SDS011;4030;52.362;9.206;2023-04-26T00:14:13;3.75;;;1.30;;
7969;SDS011;4030;52.362;9.206;2023-04-26T00:16:39;2.33;;;1.40;;
7969;SDS011;4030;52.362;9.206;2023-04-26T00:19:05;2.38;;;1.23;;
7969;SDS011;4030;52.362;9.206;2023-04-26T00:21:31;3.55;;;1.45;;
7969;SDS011;4030;52.362;9.206;2023-04-26T00:23:57;3.70;;;1.50;;
7969;SDS011;4030;52.362;9.206;2023-04-26T00:26:23;2.80;;;1.30;;
7969;SDS011;4030;52.362;9.206;2023-04-26T00:28:49;2.72;;;1.10;;
7969;SDS011;4030;52.362;9.206;2023-04-26T00:31:15;2.53;;;1.20;;
7969;SDS011;4030;52.362;9.206;2023-04-26T00:33:42;4.13;;;1.30;;
7969;SDS011;4030;52.362;9.206;2023-04-26T00:36:08;2.88;;;1.45;;
7969;SDS011;4030;52.362;9.206;2023-04-26T00:38:34;1.88;;;1.08;;
7969;SDS011;4030;52.362;9.206;2023-04-26T00:41:00;1.85;;;1.13;;
7969;SDS011;4030;52.362;9.206;2023-04-26T00:43:26;2.47;;;1.33;;
7969;SDS011;4030;52.362;9.206;2023-04-26T00:45:52;4.35;;;1.33;;
7969;SDS011;4030;52.362;9.206;2023-04-26T00:48:18;2.10;;;1.20;;
7969;SDS011;4030;52.362;9.206;2023-04-26T00:50:45;2.40;;;1.02;;
7969;SDS011;4030;52.362;9.206;2023-04-26T00:53:11;3.25;;;1.40;;
7969;SDS011;4030;52.362;9.206;2023-04-26T00:55:40;2.60;;;1.35;;
7969;SDS011;4030;52.362;9.206;2023-04-26T00:58:07;2.77;;;1.20;;
7969;SDS011;4030;52.362;9.206;2023-04-26T01:00:33;2.90;;;1.25;;
7969;SDS011;4030;52.362;9.206;2023-04-26T01:02:58;2.05;;;1.08;;
7969;SDS011;4030;52.362;9.206;2023-04-26T01:05:25;2.78;;;1.50;;
7969;SDS011;4030;52.362;9.206;2023-04-26T01:07:50;3.95;;;1.30;;
7969;SDS011;4030;52.362;9.206;2023-04-26T01:10:17;3.08;;;1.30;;
7969;SDS011;4030;52.362;9.206;2023-04-26T01:12:43;4.10;;;1.30;;
7969;SDS011;4030;52.362;9.206;2023-04-26T01:15:09;2.58;;;1.27;;
7969;SDS011;4030;52.362;9.206;2023-04-26T01:17:36;3.90;;;1.50;;
7969;SDS011;4030;52.362;9.206;2023-04-26T01:20:02;3.88;;;1.20;;
7969;SDS011;4030;52.362;9.206;2023-04-26T01:22:32;2.88;;;1.30;;
7969;SDS011;4030;52.362;9.206;2023-04-26T01:24:58;3.13;;;1.30;;
7969;SDS011;4030;52.362;9.206;2023-04-26T01:27:26;3.00;;;1.20;;
7969;SDS011;4030;52.362;9.206;2023-04-26T01:29:51;2.87;;;1.20;;
7969;SDS011;4030;52.362;9.206;2023-04-26T01:32:17;3.20;;;1.48;;
7969;SDS011;4030;52.362;9.206;2023-04-26T01:34:43;3.03;;;1.10;;
7969;SDS011;4030;52.362;9.206;2023-04-26T01:37:09;2.87;;;1.23;;
7969;SDS011;4030;52.362;9.206;2023-04-26T01:39:35;2.90;;;1.30;;
7969;SDS011;4030;52.362;9.206;2023-04-26T01:42:02;3.70;;;1.30;;
7969;SDS011;4030;52.362;9.206;2023-04-26T01:44:28;3.17;;;1.40;;
7969;SDS011;4030;52.362;9.206;2023-04-26T01:46:54;2.57;;;1.30;;
7969;SDS011;4030;52.362;9.206;2023-04-26T01:49:20;3.07;;;1.67;;
7969;SDS011;4030;52.362;9.206;2023-04-26T01:51:46;3.63;;;1.40;;
7969;SDS011;4030;52.362;9.206;2023-04-26T01:54:12;2.90;;;1.60;;
7969;SDS011;4030;52.362;9.206;2023-04-26T01:56:38;3.90;;;1.30;;
7969;SDS011;4030;52.362;9.206;2023-04-26T01:59:04;2.60;;;1.30;;
7969;SDS011;4030;52.362;9.206;2023-04-26T02:01:30;4.10;;;1.50;;
7969;SDS011;4030;52.362;9.206;2023-04-26T02:03:56;2.23;;;1.40;;
7969;SDS011;4030;52.362;9.206;2023-04-26T02:06:22;2.20;;;1.07;;
7969;SDS011;4030;52.362;9.206;2023-04-26T02:08:48;3.95;;;1.30;;
7969;SDS011;4030;52.362;9.206;2023-04-26T02:11:14;2.93;;;1.27;;
7969;SDS011;4030;52.362;9.206;2023-04-26T02:13:40;4.13;;;1.40;;
7969;SDS011;4030;52.362;9.206;2023-04-26T02:16:06;4.05;;;1.50;;
7969;SDS011;4030;52.362;9.206;2023-04-26T02:18:32;3.63;;;1.40;;
7969;SDS011;4030;52.362;9.206;2023-04-26T02:20:58;2.33;;;1.10;;
7969;SDS011;4030;52.362;9.206;2023-04-26T02:23:24;2.63;;;1.50;;
7969;SDS011;4030;52.362;9.206;2023-04-26T02:25:50;3.00;;;1.40;;
7969;SDS011;4030;52.362;9.206;2023-04-26T02:28:16;3.60;;;1.57;;
7969;SDS011;4030;52.362;9.206;2023-04-26T02:30:42;3.50;;;1.57;;
7969;SDS011;4030;52.362;9.206;2023-04-26T02:33:08;3.20;;;1.30;;
7969;SDS011;4030;52.362;9.206;2023-04-26T02:35:35;4.70;;;1.30;;
7969;SDS011;4030;52.362;9.206;2023-04-26T02:38:01;4.83;;;1.30;;
7969;SDS011;4030;52.362;9.206;2023-04-26T02:40:27;4.05;;;1.50;;
7969;SDS011;4030;52.362;9.206;2023-04-26T02:42:54;3.00;;;1.20;;
7969;SDS011;4030;52.362;9.206;2023-04-26T02:45:20;3.65;;;1.80;;
7969;SDS011;4030;52.362;9.206;2023-04-26T02:47:46;3.45;;;1.52;;
7969;SDS011;4030;52.362;9.206;2023-04-26T02:50:12;2.77;;;1.23;;
7969;SDS011;4030;52.362;9.206;2023-04-26T02:52:37;4.20;;;1.50;;
7969;SDS011;4030;52.362;9.206;2023-04-26T02:55:03;3.87;;;1.50;;
7969;SDS011;4030;52.362;9.206;2023-04-26T02:57:30;3.73;;;1.50;;
7969;SDS011;4030;52.362;9.206;2023-04-26T02:59:56;3.95;;;1.63;;
7969;SDS011;4030;52.362;9.206;2023-04-26T03:02:22;3.87;;;1.40;;
7969;SDS011;4030;52.362;9.206;2023-04-26T03:04:48;3.97;;;1.50;;
7969;SDS011;4030;52.362;9.206;2023-04-26T03:07:14;3.23;;;1.33;;
7969;SDS011;4030;52.362;9.206;2023-04-26T03:09:39;4.40;;;1.40;;
7969;SDS011;4030;52.362;9.206;2023-04-26T03:12:06;3.07;;;1.30;;
7969;SDS011;4030;52.362;9.206;2023-04-26T03:14:32;4.77;;;1.77;;
7969;SDS011;4030;52.362;9.206;2023-04-26T03:16:58;3.07;;;1.47;;
7969;SDS011;4030;52.362;9.206;2023-04-26T03:19:24;2.77;;;1.30;;
7969;SDS011;4030;52.362;9.206;2023-04-26T03:21:52;4.37;;;1.43;;
7969;SDS011;4030;52.362;9.206;2023-04-26T03:24:18;3.93;;;1.40;;
7969;SDS011;4030;52.362;9.206;2023-04-26T03:26:44;3.00;;;1.50;;
7969;SDS011;4030;52.362;9.206;2023-04-26T03:29:11;3.37;;;1.43;;
7969;SDS011;4030;52.362;9.206;2023-04-26T03:31:37;2.73;;;1.50;;
7969;SDS011;4030;52.362;9.206;2023-04-26T03:34:06;2.60;;;1.40;;
7969;SDS011;4030;52.362;9.206;2023-04-26T03:36:32;2.47;;;1.40;;
7969;SDS011;4030;52.362;9.206;2023-04-26T03:38:58;2.37;;;1.40;;
7969;SDS011;4030;52.362;9.206;2023-04-26T03:41:24;3.90;;;1.57;;
7969;SDS011;4030;52.362;9.206;2023-04-26T03:43:50;3.77;;;1.67;;
7969;SDS011;4030;52.362;9.206;2023-04-26T03:46:16;4.40;;;1.67;;
7969;SDS011;4030;52.362;9.206;2023-04-26T03:48:42;3.10;;;1.53;;
7969;SDS011;4030;52.362;9.206;2023-04-26T03:51:08;4.67;;;1.50;;
7969;SDS011;4030;52.362;9.206;2023-04-26T03:53:34;3.70;;;1.70;;
7969;SDS011;4030;52.362;9.206;2023-04-26T03:56:00;2.23;;;1.13;;
7969;SDS011;4030;52.362;9.206;2023-04-26T03:58:27;3.27;;;1.40;;
7969;SDS011;4030;52.362;9.206;2023-04-26T04:00:56;5.30;;;1.60;;
7969;SDS011;4030;52.362;9.206;2023-04-26T04:03:22;4.77;;;1.70;;
7969;SDS011;4030;52.362;9.206;2023-04-26T04:05:48;3.47;;;1.67;;
7969;SDS011;4030;52.362;9.206;2023-04-26T04:08:14;3.63;;;1.43;;
7969;SDS011;4030;52.362;9.206;2023-04-26T04:10:39;2.93;;;1.40;;
7969;SDS011;4030;52.362;9.206;2023-04-26T04:13:06;3.00;;;1.40;;
7969;SDS011;4030;52.362;9.206;2023-04-26T04:15:32;2.90;;;1.47;;
7969;SDS011;4030;52.362;9.206;2023-04-26T04:17:58;4.03;;;1.60;;
7969;SDS011;4030;52.362;9.206;2023-04-26T04:20:24;4.90;;;1.70;;
7969;SDS011;4030;52.362;9.206;2023-04-26T04:22:49;3.93;;;1.50;;
7969;SDS011;4030;52.362;9.206;2023-04-26T04:25:16;3.83;;;1.57;;
7969;SDS011;4030;52.362;9.206;2023-04-26T04:27:45;4.00;;;1.50;;
7969;SDS011;4030;52.362;9.206;2023-04-26T04:30:10;4.00;;;1.80;;
7969;SDS011;4030;52.362;9.206;2023-04-26T04:32:36;4.07;;;1.70;;
7969;SDS011;4030;52.362;9.206;2023-04-26T04:35:03;3.30;;;1.60;;
7969;SDS011;4030;52.362;9.206;2023-04-26T04:37:31;3.80;;;1.60;;
7969;SDS011;4030;52.362;9.206;2023-04-26T04:39:59;4.40;;;1.50;;
7969;SDS011;4030;52.362;9.206;2023-04-26T04:42:25;3.20;;;1.60;;
7969;SDS011;4030;52.362;9.206;2023-04-26T04:44:52;2.87;;;1.43;;
7969;SDS011;4030;52.362;9.206;2023-04-26T04:47:18;5.43;;;1.70;;
7969;SDS011;4030;52.362;9.206;2023-04-26T04:49:44;2.87;;;1.50;;
7969;SDS011;4030;52.362;9.206;2023-04-26T04:52:11;5.47;;;1.93;;
7969;SDS011;4030;52.362;9.206;2023-04-26T04:54:37;3.93;;;1.67;;
7969;SDS011;4030;52.362;9.206;2023-04-26T04:57:02;3.03;;;1.60;;
7969;SDS011;4030;52.362;9.206;2023-04-26T04:59:29;3.63;;;1.50;;
7969;SDS011;4030;52.362;9.206;2023-04-26T05:01:55;3.07;;;1.70;;
7969;SDS011;4030;52.362;9.206;2023-04-26T05:04:21;4.90;;;1.67;;
7969;SDS011;4030;52.362;9.206;2023-04-26T05:06:47;4.03;;;1.50;;
7969;SDS011;4030;52.362;9.206;2023-04-26T05:09:13;3.75;;;1.50;;
7969;SDS011;4030;52.362;9.206;2023-04-26T05:11:39;4.07;;;1.53;;
7969;SDS011;4030;52.362;9.206;2023-04-26T05:14:05;4.53;;;1.50;;
7969;SDS011;4030;52.362;9.206;2023-04-26T05:16:31;3.83;;;1.80;;
7969;SDS011;4030;52.362;9.206;2023-04-26T05:18:57;3.67;;;1.60;;
7969;SDS011;4030;52.362;9.206;2023-04-26T05:21:23;3.50;;;1.80;;
7969;SDS011;4030;52.362;9.206;2023-04-26T05:23:49;3.17;;;1.50;;
7969;SDS011;4030;52.362;9.206;2023-04-26T05:26:15;2.40;;;1.30;;
7969;SDS011;4030;52.362;9.206;2023-04-26T05:28:41;4.23;;;1.70;;
7969;SDS011;4030;52.362;9.206;2023-04-26T05:31:07;3.80;;;1.67;;
7969;SDS011;4030;52.362;9.206;2023-04-26T05:33:33;3.17;;;1.60;;
7969;SDS011;4030;52.362;9.206;2023-04-26T05:36:00;3.20;;;1.73;;
7969;SDS011;4030;52.362;9.206;2023-04-26T05:38:26;3.43;;;1.67;;
7969;SDS011;4030;52.362;9.206;2023-04-26T05:40:52;4.27;;;1.50;;
7969;SDS011;4030;52.362;9.206;2023-04-26T05:43:17;3.13;;;1.70;;
7969;SDS011;4030;52.362;9.206;2023-04-26T05:45:50;2.40;;;1.37;;
7969;SDS011;4030;52.362;9.206;2023-04-26T05:48:21;5.10;;;1.80;;
7969;SDS011;4030;52.362;9.206;2023-04-26T05:50:48;4.53;;;1.80;;
7969;SDS011;4030;52.362;9.206;2023-04-26T05:53:15;3.73;;;1.80;;
7969;SDS011;4030;52.362;9.206;2023-04-26T05:55:41;3.58;;;1.88;;
7969;SDS011;4030;52.362;9.206;2023-04-26T05:58:07;2.73;;;1.60;;
7969;SDS011;4030;52.362;9.206;2023-04-26T06:00:34;5.33;;;1.80;;
7969;SDS011;4030;52.362;9.206;2023-04-26T06:03:01;4.60;;;1.80;;
7969;SDS011;4030;52.362;9.206;2023-04-26T06:05:26;3.60;;;1.40;;
7969;SDS011;4030;52.362;9.206;2023-04-26T06:07:52;3.07;;;1.53;;
7969;SDS011;4030;52.362;9.206;2023-04-26T06:10:18;4.83;;;1.70;;
7969;SDS011;4030;52.362;9.206;2023-04-26T06:12:45;3.17;;;1.80;;
7969;SDS011;4030;52.362;9.206;2023-04-26T06:15:11;3.73;;;1.73;;
7969;SDS011;4030;52.362;9.206;2023-04-26T06:17:37;2.87;;;1.70;;
7969;SDS011;4030;52.362;9.206;2023-04-26T06:20:03;2.63;;;1.60;;
7969;SDS011;4030;52.362;9.206;2023-04-26T06:22:29;3.57;;;1.37;;
7969;SDS011;4030;52.362;9.206;2023-04-26T06:24:55;4.60;;;1.67;;
7969;SDS011;4030;52.362;9.206;2023-04-26T06:27:21;4.20;;;1.50;;
7969;SDS011;4030;52.362;9.206;2023-04-26T06:29:47;3.63;;;1.67;;
7969;SDS011;4030;52.362;9.206;2023-04-26T06:32:13;3.80;;;1.53;;
7969;SDS011;4030;52.362;9.206;2023-04-26T06:34:39;3.90;;;1.47;;
7969;SDS011;4030;52.362;9.206;2023-04-26T06:37:05;3.70;;;1.80;;
7969;SDS011;4030;52.362;9.206;2023-04-26T06:39:31;4.00;;;1.70;;
7969;SDS011;4030;52.362;9.206;2023-04-26T06:41:57;3.40;;;1.60;;
7969;SDS011;4030;52.362;9.206;2023-04-26T06:44:23;5.28;;;1.80;;
7969;SDS011;4030;52.362;9.206;2023-04-26T06:46:52;5.13;;;1.47;;
7969;SDS011;4030;52.362;9.206;2023-04-26T06:49:19;2.65;;;1.17;;
7969;SDS011;4030;52.362;9.206;2023-04-26T06:51:45;3.70;;;1.70;;
7969;SDS011;4030;52.362;9.206;2023-04-26T06:54:11;3.35;;;1.52;;
7969;SDS011;4030;52.362;9.206;2023-04-26T06:56:37;4.43;;;1.70;;
7969;SDS011;4030;52.362;9.206;2023-04-26T06:59:03;4.15;;;1.58;;
7969;SDS011;4030;52.362;9.206;2023-04-26T07:01:30;3.80;;;1.60;;
7969;SDS011;4030;52.362;9.206;2023-04-26T07:03:58;5.57;;;1.55;;
7969;SDS011;4030;52.362;9.206;2023-04-26T07:06:29;3.63;;;1.50;;
7969;SDS011;4030;52.362;9.206;2023-04-26T07:08:58;3.88;;;1.70;;
7969;SDS011;4030;52.362;9.206;2023-04-26T07:11:24;4.88;;;1.73;;
7969;SDS011;4030;52.362;9.206;2023-04-26T07:13:50;3.60;;;1.58;;
7969;SDS011;4030;52.362;9.206;2023-04-26T07:16:16;3.50;;;1.48;;
7969;SDS011;4030;52.362;9.206;2023-04-26T07:18:42;4.40;;;1.83;;
7969;SDS011;4030;52.362;9.206;2023-04-26T07:21:08;3.60;;;1.60;;
7969;SDS011;4030;52.362;9.206;2023-04-26T07:23:34;4.18;;;1.50;;
7969;SDS011;4030;52.362;9.206;2023-04-26T07:26:00;2.53;;;1.55;;
7969;SDS011;4030;52.362;9.206;2023-04-26T07:28:28;2.92;;;1.52;;
7969;SDS011;4030;52.362;9.206;2023-04-26T07:30:54;2.60;;;1.30;;
7969;SDS011;4030;52.362;9.206;2023-04-26T07:33:21;4.53;;;1.80;;
7969;SDS011;4030;52.362;9.206;2023-04-26T07:35:52;3.10;;;1.35;;
7969;SDS011;4030;52.362;9.206;2023-04-26T07:38:22;3.28;;;1.50;;
7969;SDS011;4030;52.362;9.206;2023-04-26T07:40:47;5.95;;;1.70;;
7969;SDS011;4030;52.362;9.206;2023-04-26T07:43:14;4.38;;;1.67;;
7969;SDS011;4030;52.362;9.206;2023-04-26T07:45:40;3.78;;;1.50;;
7969;SDS011;4030;52.362;9.206;2023-04-26T07:48:06;3.45;;;1.63;;
7969;SDS011;4030;52.362;9.206;2023-04-26T07:50:32;2.88;;;1.33;;
7969;SDS011;4030;52.362;9.206;2023-04-26T07:52:58;2.67;;;1.42;;
7969;SDS011;4030;52.362;9.206;2023-04-26T07:55:24;3.30;;;1.50;;
7969;SDS011;4030;52.362;9.206;2023-04-26T07:57:50;2.65;;;1.25;;
7969;SDS011;4030;52.362;9.206;2023-04-26T08:00:16;4.18;;;1.60;;
7969;SDS011;4030;52.362;9.206;2023-04-26T08:02:43;5.00;;;1.50;;
7969;SDS011;4030;52.362;9.206;2023-04-26T08:05:13;2.85;;;1.42;;
7969;SDS011;4030;52.362;9.206;2023-04-26T08:07:40;4.38;;;1.38;;
7969;SDS011;4030;52.362;9.206;2023-04-26T08:10:06;3.10;;;1.27;;
7969;SDS011;4030;52.362;9.206;2023-04-26T08:12:33;4.60;;;1.65;;
7969;SDS011;4030;52.362;9.206;2023-04-26T08:15:00;2.75;;;1.27;;
7969;SDS011;4030;52.362;9.206;2023-04-26T08:17:28;2.92;;;1.25;;
7969;SDS011;4030;52.362;9.206;2023-04-26T08:19:54;1.70;;;1.08;;
7969;SDS011;4030;52.362;9.206;2023-04-26T08:22:20;3.67;;;1.40;;
7969;SDS011;4030;52.362;9.206;2023-04-26T08:24:46;3.65;;;1.20;;
7969;SDS011;4030;52.362;9.206;2023-04-26T08:27:14;3.13;;;1.42;;
7969;SDS011;4030;52.362;9.206;2023-04-26T08:29:40;3.58;;;1.25;;
7969;SDS011;4030;52.362;9.206;2023-04-26T08:32:06;3.40;;;1.20;;
7969;SDS011;4030;52.362;9.206;2023-04-26T08:34:32;2.80;;;1.20;;
7969;SDS011;4030;52.362;9.206;2023-04-26T08:36:58;2.38;;;1.00;;
7969;SDS011;4030;52.362;9.206;2023-04-26T08:39:25;3.58;;;1.30;;
7969;SDS011;4030;52.362;9.206;2023-04-26T08:41:52;2.65;;;1.27;;
7969;SDS011;4030;52.362;9.206;2023-04-26T08:44:21;2.10;;;1.20;;
7969;SDS011;4030;52.362;9.206;2023-04-26T08:49:30;1.90;;;1.10;;
7969;SDS011;4030;52.362;9.206;2023-04-26T08:52:02;2.80;;;1.20;;
7969;SDS011;4030;52.362;9.206;2023-04-26T08:54:28;2.38;;;1.35;;
7969;SDS011;4030;52.362;9.206;2023-04-26T08:56:57;2.40;;;1.20;;
7969;SDS011;4030;52.362;9.206;2023-04-26T08:59:23;4.50;;;1.40;;
7969;SDS011;4030;52.362;9.206;2023-04-26T09:01:49;1.60;;;1.10;;
7969;SDS011;4030;52.362;9.206;2023-04-26T09:04:15;2.85;;;1.20;;
7969;SDS011;4030;52.362;9.206;2023-04-26T09:06:41;2.78;;;1.10;;
7969;SDS011;4030;52.362;9.206;2023-04-26T09:09:08;1.65;;;1.10;;
7969;SDS011;4030;52.362;9.206;2023-04-26T09:11:55;2.72;;;1.35;;
7969;SDS011;4030;52.362;9.206;2023-04-26T09:14:23;2.38;;;1.20;;
7969;SDS011;4030;52.362;9.206;2023-04-26T09:16:52;2.88;;;1.25;;
7969;SDS011;4030;52.362;9.206;2023-04-26T09:22:01;1.75;;;1.05;;
7969;SDS011;4030;52.362;9.206;2023-04-26T09:24:27;3.00;;;1.27;;
7969;SDS011;4030;52.362;9.206;2023-04-26T09:27:00;3.33;;;1.20;;
7969;SDS011;4030;52.362;9.206;2023-04-26T09:29:29;2.45;;;1.25;;
7969;SDS011;4030;52.362;9.206;2023-04-26T09:31:55;2.20;;;1.20;;
7969;SDS011;4030;52.362;9.206;2023-04-26T09:34:22;4.03;;;1.23;;
7969;SDS011;4030;52.362;9.206;2023-04-26T09:36:48;3.75;;;1.65;;
7969;SDS011;4030;52.362;9.206;2023-04-26T09:39:34;9.75;;;1.83;;
7969;SDS011;4030;52.362;9.206;2023-04-26T09:42:04;10.50;;;1.20;;
7969;SDS011;4030;52.362;9.206;2023-04-26T09:44:31;4.38;;;1.40;;
7969;SDS011;4030;52.362;9.206;2023-04-26T09:47:03;4.95;;;1.30;;
7969;SDS011;4030;52.362;9.206;2023-04-26T09:49:44;3.35;;;1.50;;
7969;SDS011;4030;52.362;9.206;2023-04-26T09:52:12;2.60;;;1.20;;
7969;SDS011;4030;52.362;9.206;2023-04-26T09:54:46;2.53;;;1.17;;
7969;SDS011;4030;52.362;9.206;2023-04-26T09:57:15;1.63;;;0.95;;
7969;SDS011;4030;52.362;9.206;2023-04-26T09:59:44;2.55;;;1.25;;
7969;SDS011;4030;52.362;9.206;2023-04-26T10:02:14;3.95;;;1.10;;
7969;SDS011;4030;52.362;9.206;2023-04-26T10:04:48;4.78;;;1.05;;
7969;SDS011;4030;52.362;9.206;2023-04-26T10:07:16;2.13;;;0.80;;
7969;SDS011;4030;52.362;9.206;2023-04-26T10:09:45;2.78;;;0.85;;
7969;SDS011;4030;52.362;9.206;2023-04-26T10:12:11;2.75;;;1.35;;
7969;SDS011;4030;52.362;9.206;2023-04-26T10:14:40;2.00;;;0.95;;
7969;SDS011;4030;52.362;9.206;2023-04-26T10:17:08;3.58;;;1.10;;
7969;SDS011;4030;52.362;9.206;2023-04-26T10:19:36;3.17;;;1.08;;
7969;SDS011;4030;52.362;9.206;2023-04-26T10:22:04;3.03;;;1.25;;
7969;SDS011;4030;52.362;9.206;2023-04-26T10:24:41;2.63;;;1.00;;
7969;SDS011;4030;52.362;9.206;2023-04-26T10:27:08;2.40;;;1.10;;
7969;SDS011;4030;52.362;9.206;2023-04-26T10:32:18;2.55;;;1.00;;
7969;SDS011;4030;52.362;9.206;2023-04-26T10:34:44;2.78;;;0.90;;
7969;SDS011;4030;52.362;9.206;2023-04-26T10:40:28;1.83;;;1.02;;
7969;SDS011;4030;52.362;9.206;2023-04-26T10:45:33;1.98;;;0.93;;
7969;SDS011;4030;52.362;9.206;2023-04-26T10:59:11;2.03;;;0.90;;
7969;SDS011;4030;52.362;9.206;2023-04-26T11:01:38;5.32;;;1.25;;
7969;SDS011;4030;52.362;9.206;2023-04-26T11:04:05;2.95;;;1.10;;
7969;SDS011;4030;52.362;9.206;2023-04-26T11:06:52;3.63;;;0.93;;
7969;SDS011;4030;52.362;9.206;2023-04-26T11:09:38;3.85;;;0.95;;
7969;SDS011;4030;52.362;9.206;2023-04-26T11:12:06;3.42;;;1.10;;
7969;SDS011;4030;52.362;9.206;2023-04-26T11:14:37;2.42;;;0.90;;
7969;SDS011;4030;52.362;9.206;2023-04-26T11:17:05;2.03;;;0.90;;
7969;SDS011;4030;52.362;9.206;2023-04-26T11:19:32;1.83;;;0.88;;
7969;SDS011;4030;52.362;9.206;2023-04-26T11:21:59;2.33;;;1.02;;
7969;SDS011;4030;52.362;9.206;2023-04-26T11:24:26;3.40;;;1.05;;
7969;SDS011;4030;52.362;9.206;2023-04-26T11:26:54;1.33;;;0.80;;
7969;SDS011;4030;52.362;9.206;2023-04-26T11:29:22;1.02;;;0.85;;
7969;SDS011;4030;52.362;9.206;2023-04-26T11:31:51;1.73;;;0.80;;
7969;SDS011;4030;52.362;9.206;2023-04-26T11:34:42;1.55;;;1.02;;
7969;SDS011;4030;52.362;9.206;2023-04-26T11:37:07;2.42;;;0.90;;
7969;SDS011;4030;52.362;9.206;2023-04-26T11:39:34;1.55;;;0.90;;
7969;SDS011;4030;52.362;9.206;2023-04-26T11:42:04;1.88;;;1.10;;
7969;SDS011;4030;52.362;9.206;2023-04-26T11:44:31;1.70;;;0.85;;
7969;SDS011;4030;52.362;9.206;2023-04-26T11:46:57;2.33;;;0.90;;
7969;SDS011;4030;52.362;9.206;2023-04-26T11:49:30;2.17;;;1.00;;
7969;SDS011;4030;52.362;9.206;2023-04-26T11:51:56;1.83;;;0.88;;
7969;SDS011;4030;52.362;9.206;2023-04-26T11:54:33;1.85;;;0.90;;
7969;SDS011;4030;52.362;9.206;2023-04-26T11:57:11;2.65;;;0.98;;
7969;SDS011;4030;52.362;9.206;2023-04-26T11:59:39;2.25;;;0.95;;
7969;SDS011;4030;52.362;9.206;2023-04-26T12:02:05;2.15;;;1.20;;
7969;SDS011;4030;52.362;9.206;2023-04-26T12:04:32;1.55;;;0.90;;
7969;SDS011;4030;52.362;9.206;2023-04-26T12:06:58;2.42;;;1.08;;
7969;SDS011;4030;52.362;9.206;2023-04-26T12:09:27;2.25;;;1.10;;
7969;SDS011;4030;52.362;9.206;2023-04-26T12:12:00;4.05;;;1.27;;
7969;SDS011;4030;52.362;9.206;2023-04-26T12:14:34;3.15;;;1.10;;
7969;SDS011;4030;52.362;9.206;2023-04-26T12:17:04;4.03;;;1.27;;
7969;SDS011;4030;52.362;9.206;2023-04-26T12:19:34;2.75;;;1.00;;
7969;SDS011;4030;52.362;9.206;2023-04-26T12:22:01;2.03;;;1.00;;
7969;SDS011;4030;52.362;9.206;2023-04-26T12:24:30;1.52;;;0.95;;
7969;SDS011;4030;52.362;9.206;2023-04-26T12:27:01;3.10;;;1.08;;
7969;SDS011;4030;52.362;9.206;2023-04-26T12:29:30;4.40;;;1.30;;
7969;SDS011;4030;52.362;9.206;2023-04-26T12:31:56;4.85;;;1.50;;
7969;SDS011;4030;52.362;9.206;2023-04-26T12:34:25;2.42;;;1.10;;
7969;SDS011;4030;52.362;9.206;2023-04-26T12:36:51;2.60;;;1.00;;
7969;SDS011;4030;52.362;9.206;2023-04-26T12:39:17;1.88;;;0.88;;
7969;SDS011;4030;52.362;9.206;2023-04-26T12:41:43;3.22;;;1.30;;
7969;SDS011;4030;52.362;9.206;2023-04-26T12:44:10;2.88;;;1.45;;
7969;SDS011;4030;52.362;9.206;2023-04-26T12:46:36;4.38;;;1.30;;
7969;SDS011;4030;52.362;9.206;2023-04-26T12:49:02;2.67;;;1.20;;
7969;SDS011;4030;52.362;9.206;2023-04-26T12:51:28;2.92;;;1.23;;
7969;SDS011;4030;52.362;9.206;2023-04-26T12:53:55;1.75;;;1.10;;
7969;SDS011;4030;52.362;9.206;2023-04-26T12:56:22;2.15;;;1.10;;
7969;SDS011;4030;52.362;9.206;2023-04-26T12:58:48;2.97;;;1.35;;
7969;SDS011;4030;52.362;9.206;2023-04-26T13:01:14;2.00;;;1.00;;
7969;SDS011;4030;52.362;9.206;2023-04-26T13:03:40;1.25;;;0.90;;
7969;SDS011;4030;52.362;9.206;2023-04-26T13:06:06;1.85;;;0.90;;
7969;SDS011;4030;52.362;9.206;2023-04-26T13:08:32;1.58;;;0.90;;
7969;SDS011;4030;52.362;9.206;2023-04-26T13:10:58;1.88;;;1.10;;
7969;SDS011;4030;52.362;9.206;2023-04-26T13:13:24;3.15;;;0.90;;
7969;SDS011;4030;52.362;9.206;2023-04-26T13:15:50;2.28;;;1.10;;
7969;SDS011;4030;52.362;9.206;2023-04-26T13:18:15;2.25;;;1.30;;
7969;SDS011;4030;52.362;9.206;2023-04-26T13:20:42;3.22;;;1.15;;
7969;SDS011;4030;52.362;9.206;2023-04-26T13:23:08;5.53;;;1.40;;
7969;SDS011;4030;52.362;9.206;2023-04-26T13:25:35;1.60;;;1.00;;
7969;SDS011;4030;52.362;9.206;2023-04-26T13:28:02;3.97;;;1.15;;
7969;SDS011;4030;52.362;9.206;2023-04-26T13:30:28;2.53;;;1.00;;
7969;SDS011;4030;52.362;9.206;2023-04-26T13:32:54;2.78;;;1.10;;
7969;SDS011;4030;52.362;9.206;2023-04-26T13:35:21;1.98;;;1.10;;
7969;SDS011;4030;52.362;9.206;2023-04-26T13:37:47;2.42;;;1.17;;
7969;SDS011;4030;52.362;9.206;2023-04-26T13:40:12;2.10;;;1.10;;
7969;SDS011;4030;52.362;9.206;2023-04-26T13:42:39;1.88;;;1.00;;
7969;SDS011;4030;52.362;9.206;2023-04-26T13:45:05;2.25;;;1.00;;
7969;SDS011;4030;52.362;9.206;2023-04-26T13:47:34;2.05;;;1.15;;
7969;SDS011;4030;52.362;9.206;2023-04-26T13:50:00;2.20;;;0.93;;
7969;SDS011;4030;52.362;9.206;2023-04-26T13:52:26;2.72;;;1.60;;
7969;SDS011;4030;52.362;9.206;2023-04-26T13:54:52;1.65;;;1.00;;
7969;SDS011;4030;52.362;9.206;2023-04-26T13:57:18;2.35;;;1.17;;
7969;SDS011;4030;52.362;9.206;2023-04-26T13:59:44;1.58;;;0.90;;
7969;SDS011;4030;52.362;9.206;2023-04-26T14:02:10;1.45;;;1.00;;
7969;SDS011;4030;52.362;9.206;2023-04-26T14:04:36;2.50;;;1.10;;
7969;SDS011;4030;52.362;9.206;2023-04-26T14:07:02;3.03;;;1.30;;
7969;SDS011;4030;52.362;9.206;2023-04-26T14:09:29;2.25;;;1.23;;
7969;SDS011;4030;52.362;9.206;2023-04-26T14:11:55;1.58;;;1.10;;
7969;SDS011;4030;52.362;9.206;2023-04-26T14:14:21;1.40;;;0.98;;
7969;SDS011;4030;52.362;9.206;2023-04-26T14:16:46;1.35;;;1.00;;
7969;SDS011;4030;52.362;9.206;2023-04-26T14:19:12;3.10;;;1.08;;
7969;SDS011;4030;52.362;9.206;2023-04-26T14:21:40;1.70;;;0.93;;
7969;SDS011;4030;52.362;9.206;2023-04-26T14:24:06;1.40;;;0.85;;
7969;SDS011;4030;52.362;9.206;2023-04-26T14:26:31;1.63;;;1.00;;
7969;SDS011;4030;52.362;9.206;2023-04-26T14:28:58;2.70;;;1.38;;
7969;SDS011;4030;52.362;9.206;2023-04-26T14:31:24;1.55;;;1.20;;
7969;SDS011;4030;52.362;9.206;2023-04-26T14:33:51;3.08;;;1.20;;
7969;SDS011;4030;52.362;9.206;2023-04-26T14:36:18;2.08;;;1.20;;
7969;SDS011;4030;52.362;9.206;2023-04-26T14:38:44;2.42;;;1.30;;
7969;SDS011;4030;52.362;9.206;2023-04-26T14:41:16;5.07;;;1.40;;
7969;SDS011;4030;52.362;9.206;2023-04-26T14:43:43;2.45;;;1.40;;
7969;SDS011;4030;52.362;9.206;2023-04-26T14:46:11;1.88;;;1.50;;
7969;SDS011;4030;52.362;9.206;2023-04-26T14:48:37;2.80;;;1.52;;
7969;SDS011;4030;52.362;9.206;2023-04-26T14:51:03;2.45;;;1.50;;
7969;SDS011;4030;52.362;9.206;2023-04-26T14:53:29;2.75;;;1.55;;
7969;SDS011;4030;52.362;9.206;2023-04-26T14:55:58;2.55;;;1.60;;
7969;SDS011;4030;52.362;9.206;2023-04-26T14:58:24;2.03;;;1.40;;
7969;SDS011;4030;52.362;9.206;2023-04-26T15:00:51;3.03;;;1.23;;
7969;SDS011;4030;52.362;9.206;2023-04-26T15:03:17;3.60;;;1.60;;
7969;SDS011;4030;52.362;9.206;2023-04-26T15:05:44;2.78;;;1.42;;
7969;SDS011;4030;52.362;9.206;2023-04-26T15:08:10;6.95;;;3.90;;
7969;SDS011;4030;52.362;9.206;2023-04-26T15:10:36;4.95;;;3.15;;
7969;SDS011;4030;52.362;9.206;2023-04-26T15:13:01;3.80;;;2.67;;
7969;SDS011;4030;52.362;9.206;2023-04-26T15:15:27;4.75;;;3.70;;
7969;SDS011;4030;52.362;9.206;2023-04-26T15:17:53;5.35;;;2.72;;
7969;SDS011;4030;52.362;9.206;2023-04-26T15:20:19;4.72;;;3.08;;
7969;SDS011;4030;52.362;9.206;2023-04-26T15:22:46;4.65;;;2.67;;
7969;SDS011;4030;52.362;9.206;2023-04-26T15:25:12;4.53;;;2.97;;
7969;SDS011;4030;52.362;9.206;2023-04-26T15:27:38;4.72;;;2.90;;
7969;SDS011;4030;52.362;9.206;2023-04-26T15:30:04;4.15;;;2.58;;
7969;SDS011;4030;52.362;9.206;2023-04-26T15:32:32;3.85;;;2.65;;
7969;SDS011;4030;52.362;9.206;2023-04-26T15:34:58;2.97;;;2.17;;
7969;SDS011;4030;52.362;9.206;2023-04-26T15:37:24;3.75;;;2.25;;
7969;SDS011;4030;52.362;9.206;2023-04-26T15:39:50;2.55;;;2.20;;